createdAt,value
2017-11-21T00:00:49.040Z,22.60
2017-11-21T00:03:23.554Z,21.50
2017-11-21T00:05:57.875Z,20.75
2017-11-21T00:08:32.390Z,21.15
2017-11-21T00:11:06.706Z,21.35
2017-11-21T00:13:41.180Z,24.25
2017-11-21T00:16:15.644Z,21.75
2017-11-21T00:18:50.161Z,22.58
2017-11-21T00:21:24.481Z,22.02
2017-11-21T00:23:58.971Z,23.92
2017-11-21T00:26:33.438Z,24.25
2017-11-21T00:29:07.862Z,20.45
2017-11-21T00:31:42.145Z,22.65
2017-11-21T00:34:16.468Z,22.77
2017-11-21T00:36:50.906Z,21.90
2017-11-21T00:39:25.258Z,21.75
2017-11-21T00:41:59.686Z,22.42
2017-11-21T00:44:34.054Z,22.23
2017-11-21T00:47:08.422Z,21.52
2017-11-21T00:49:42.777Z,22.55
2017-11-21T00:52:17.326Z,22.83
2017-11-21T00:54:52.528Z,23.62
2017-11-21T00:57:26.989Z,22.13
2017-11-21T01:00:01.466Z,23.77
2017-11-21T01:02:35.971Z,21.37
2017-11-21T01:05:10.453Z,20.85
2017-11-21T01:07:44.768Z,23.23
2017-11-21T01:10:19.198Z,24.63
2017-11-21T01:12:53.803Z,21.55
2017-11-21T01:15:28.205Z,23.50
2017-11-21T01:18:02.704Z,22.75
2017-11-21T01:20:37.040Z,22.98
2017-11-21T01:23:11.477Z,24.05
2017-11-21T01:25:46.689Z,22.58
2017-11-21T01:28:21.069Z,20.60
2017-11-21T01:30:55.581Z,22.42
2017-11-21T01:33:30.650Z,21.37
2017-11-21T01:36:04.969Z,21.77
2017-11-21T01:38:39.377Z,22.17
2017-11-21T01:41:13.774Z,21.12
2017-11-21T01:43:48.149Z,23.48
2017-11-21T01:46:22.579Z,21.70
2017-11-21T01:48:56.912Z,22.30
2017-11-21T01:51:32.096Z,21.50
2017-11-21T01:54:06.494Z,21.35
2017-11-21T01:56:40.874Z,20.83
2017-11-21T01:59:15.187Z,22.42
2017-11-21T02:01:49.497Z,22.75
2017-11-21T02:04:23.959Z,22.00
2017-11-21T02:06:58.468Z,19.12
2017-11-21T02:09:32.864Z,20.80
2017-11-21T02:12:07.286Z,19.20
2017-11-21T02:14:41.720Z,20.35
2017-11-21T02:17:16.027Z,22.25
2017-11-21T02:19:50.366Z,21.48
2017-11-21T02:22:25.459Z,22.05
2017-11-21T02:24:59.883Z,19.77
2017-11-21T02:27:34.214Z,20.70
2017-11-21T02:30:08.661Z,22.20
2017-11-21T02:32:43.136Z,22.10
2017-11-21T02:35:17.578Z,21.37
2017-11-21T02:37:51.904Z,22.70
2017-11-21T02:40:26.383Z,23.95
2017-11-21T02:43:00.848Z,22.00
2017-11-21T02:45:36.125Z,22.62
2017-11-21T02:48:10.469Z,21.12
2017-11-21T02:50:44.986Z,22.17
2017-11-21T02:53:19.491Z,20.83
2017-11-21T02:55:53.829Z,21.70
2017-11-21T02:58:28.369Z,22.35
2017-11-21T03:01:02.894Z,20.33
2017-11-21T03:03:37.308Z,22.92
2017-11-21T03:06:12.517Z,20.85
2017-11-21T03:08:47.700Z,21.85
2017-11-21T03:11:22.157Z,22.52
2017-11-21T03:13:56.540Z,23.05
2017-11-21T03:16:30.912Z,20.27
2017-11-21T03:19:05.277Z,20.27
2017-11-21T03:21:52.368Z,20.15
2017-11-21T03:24:39.329Z,21.52
2017-11-21T03:27:14.544Z,20.30
2017-11-21T03:29:49.044Z,21.25
2017-11-21T03:32:23.563Z,22.58
2017-11-21T03:34:58.024Z,23.85
2017-11-21T03:37:33.306Z,23.00
2017-11-21T03:40:07.860Z,24.65
2017-11-21T03:42:42.377Z,21.98
2017-11-21T03:45:16.804Z,22.77
2017-11-21T03:47:51.112Z,20.20
2017-11-21T03:50:25.493Z,21.77
2017-11-21T03:53:00.028Z,21.42
2017-11-21T03:55:35.184Z,23.80
2017-11-21T03:58:09.578Z,21.17
2017-11-21T04:01:00.500Z,20.25
2017-11-21T04:03:35.060Z,21.87
2017-11-21T04:06:09.561Z,21.33
2017-11-21T04:08:43.901Z,23.05
2017-11-21T04:11:18.444Z,20.62
2017-11-21T04:13:52.896Z,20.35
2017-11-21T04:16:27.677Z,19.73
2017-11-21T04:19:02.097Z,22.67
2017-11-21T04:21:36.504Z,22.42
2017-11-21T04:24:10.990Z,19.23
2017-11-21T04:26:45.332Z,22.20
2017-11-21T04:29:19.676Z,17.98
2017-11-21T04:31:54.095Z,20.55
2017-11-21T04:34:29.180Z,20.17
2017-11-21T04:37:03.522Z,20.60
2017-11-21T04:39:37.928Z,21.25
2017-11-21T04:42:12.277Z,17.87
2017-11-21T04:44:46.704Z,22.58
2017-11-21T04:47:21.066Z,18.60
2017-11-21T04:49:55.542Z,21.50
2017-11-21T04:52:29.907Z,20.95
2017-11-21T04:55:04.345Z,20.55
2017-11-21T04:57:38.726Z,22.35
2017-11-21T05:00:13.329Z,21.50
2017-11-21T05:02:47.689Z,22.83
2017-11-21T05:05:22.904Z,20.80
2017-11-21T05:07:57.235Z,23.00
2017-11-21T05:10:31.644Z,21.58
2017-11-21T05:13:06.822Z,21.42
2017-11-21T05:15:41.225Z,20.67
2017-11-21T05:18:15.557Z,20.48
2017-11-21T05:20:49.968Z,22.00
2017-11-21T05:23:24.387Z,21.67
2017-11-21T05:25:58.806Z,20.05
2017-11-21T05:28:34.031Z,21.10
2017-11-21T05:31:08.604Z,21.17
2017-11-21T05:33:43.081Z,21.35
2017-11-21T05:36:17.524Z,22.98
2017-11-21T05:38:51.953Z,22.77
2017-11-21T05:41:26.428Z,22.77
2017-11-21T05:44:00.977Z,21.75
2017-11-21T05:46:35.456Z,24.48
2017-11-21T05:49:09.980Z,24.45
2017-11-21T05:51:44.471Z,24.20
2017-11-21T05:54:18.946Z,24.25
2017-11-21T05:56:53.438Z,22.75
2017-11-21T05:59:27.796Z,23.42
2017-11-21T06:02:02.292Z,22.85
2017-11-21T06:04:36.754Z,24.17
2017-11-21T06:07:11.259Z,23.42
2017-11-21T06:09:45.693Z,24.00
2017-11-21T06:12:20.156Z,24.73
2017-11-21T06:14:55.457Z,22.27
2017-11-21T06:17:29.893Z,22.52
2017-11-21T06:20:04.194Z,23.75
2017-11-21T06:22:38.729Z,23.67
2017-11-21T06:25:13.079Z,23.65
2017-11-21T06:27:47.430Z,23.60
2017-11-21T06:30:22.895Z,24.45
2017-11-21T06:32:58.076Z,23.45
2017-11-21T06:35:32.445Z,24.02
2017-11-21T06:38:06.786Z,24.08
2017-11-21T06:40:42.012Z,27.98
2017-11-21T06:43:16.344Z,23.23
2017-11-21T06:45:51.262Z,28.30
2017-11-21T06:48:25.585Z,24.77
2017-11-21T06:51:00.076Z,25.20
2017-11-21T06:53:34.472Z,22.45
2017-11-21T06:56:08.797Z,25.00
2017-11-21T06:58:43.212Z,20.80
2017-11-21T07:01:17.513Z,25.92
2017-11-21T07:03:52.047Z,24.58
2017-11-21T07:06:27.253Z,21.00
2017-11-21T07:09:01.797Z,21.90
2017-11-21T07:11:36.124Z,21.00
2017-11-21T07:14:10.462Z,21.27
2017-11-21T07:16:44.930Z,20.30
2017-11-21T07:19:19.259Z,23.05
2017-11-21T07:21:53.630Z,20.15
2017-11-21T07:24:28.134Z,20.00
2017-11-21T07:27:02.636Z,20.08
2017-11-21T07:29:37.966Z,20.75
2017-11-21T07:32:12.292Z,21.60
2017-11-21T07:34:46.693Z,17.20
2017-11-21T07:37:21.215Z,22.33
2017-11-21T07:39:55.506Z,21.40
2017-11-21T07:42:31.536Z,21.33
2017-11-21T07:45:05.969Z,21.00
2017-11-21T07:47:40.445Z,18.75
2017-11-21T07:50:14.802Z,18.85
2017-11-21T07:52:49.135Z,20.67
2017-11-21T07:55:23.619Z,19.25
2017-11-21T07:57:57.949Z,17.33
2017-11-21T08:00:32.386Z,17.85
2017-11-21T08:03:06.739Z,17.67
2017-11-21T08:05:41.113Z,18.33
2017-11-21T08:08:15.565Z,20.62
2017-11-21T08:10:49.959Z,19.52
2017-11-21T08:13:24.473Z,20.60
2017-11-21T08:15:58.802Z,18.70
2017-11-21T08:18:33.260Z,15.93
2017-11-21T08:21:07.697Z,19.48
2017-11-21T08:23:42.109Z,18.23
2017-11-21T08:26:16.430Z,18.87
2017-11-21T08:28:50.846Z,18.77
2017-11-21T08:31:25.274Z,20.83
2017-11-21T08:33:59.746Z,17.20
2017-11-21T08:36:34.264Z,17.92
2017-11-21T08:39:08.589Z,19.05
2017-11-21T08:41:42.924Z,19.52
2017-11-21T08:44:17.248Z,18.58
2017-11-21T08:46:51.621Z,18.02
2017-11-21T08:49:25.964Z,18.40
2017-11-21T08:52:00.425Z,17.15
2017-11-21T08:54:37.113Z,15.73
2017-11-21T08:57:11.525Z,19.12
2017-11-21T08:59:45.979Z,16.48
2017-11-21T09:02:20.386Z,16.42
2017-11-21T09:04:54.885Z,17.83
2017-11-21T09:07:29.316Z,17.33
2017-11-21T09:10:03.757Z,16.77
2017-11-21T09:12:38.206Z,16.70
2017-11-21T09:15:12.508Z,16.67
2017-11-21T09:17:46.894Z,15.80
2017-11-21T09:20:21.437Z,18.30
2017-11-21T09:22:55.936Z,18.40
2017-11-21T09:25:30.479Z,16.15
2017-11-21T09:28:04.863Z,16.45
2017-11-21T09:30:39.403Z,15.95
2017-11-21T09:33:14.632Z,16.42
2017-11-21T09:35:49.162Z,16.80
2017-11-21T09:38:23.646Z,17.55
2017-11-21T09:40:58.076Z,14.98
2017-11-21T09:43:32.483Z,14.20
2017-11-21T09:46:06.838Z,15.80
2017-11-21T09:48:41.166Z,15.25
2017-11-21T09:51:15.611Z,15.25
2017-11-21T09:53:50.682Z,16.37
2017-11-21T09:56:25.194Z,16.08
2017-11-21T09:59:00.427Z,15.05
2017-11-21T10:01:34.786Z,13.57
2017-11-21T10:04:09.263Z,14.52
2017-11-21T10:06:43.594Z,13.38
2017-11-21T10:09:18.049Z,13.90
2017-11-21T10:11:52.604Z,14.95
2017-11-21T10:14:27.063Z,14.85
2017-11-21T10:17:01.521Z,14.77
2017-11-21T10:19:35.922Z,14.95
2017-11-21T10:22:10.340Z,15.02
2017-11-21T10:24:45.540Z,16.33
2017-11-21T10:27:19.955Z,14.23
2017-11-21T10:29:54.497Z,14.65
2017-11-21T10:32:28.872Z,14.95
2017-11-21T10:35:03.335Z,15.77
2017-11-21T10:37:37.766Z,17.58
2017-11-21T10:40:14.097Z,16.40
2017-11-21T10:42:48.550Z,14.77
2017-11-21T10:45:22.861Z,13.80
2017-11-21T10:47:57.289Z,15.23
2017-11-21T10:50:31.715Z,16.70
2017-11-21T10:53:06.192Z,16.33
2017-11-21T10:55:40.813Z,15.57
2017-11-21T10:58:15.406Z,15.85
2017-11-21T11:00:49.868Z,13.95
2017-11-21T11:03:30.249Z,15.20
2017-11-21T11:06:04.668Z,14.00
2017-11-21T11:08:39.262Z,14.15
2017-11-21T11:11:13.588Z,15.32
2017-11-21T11:13:48.146Z,13.75
2017-11-21T11:16:22.462Z,13.55
2017-11-21T11:18:57.603Z,11.82
2017-11-21T11:21:32.104Z,11.35
2017-11-21T11:24:06.529Z,13.15
2017-11-21T11:26:40.973Z,12.77
2017-11-21T11:29:15.461Z,12.65
2017-11-21T11:31:50.042Z,13.77
2017-11-21T11:34:24.614Z,13.18
2017-11-21T11:36:58.907Z,15.98
2017-11-21T11:39:33.369Z,12.80
2017-11-21T11:42:07.675Z,13.88
2017-11-21T11:44:42.097Z,13.57
2017-11-21T11:47:16.572Z,13.30
2017-11-21T11:49:50.923Z,12.90
2017-11-21T11:52:25.478Z,12.80
2017-11-21T11:54:59.849Z,12.52
2017-11-21T11:57:34.368Z,12.20
2017-11-21T12:00:08.731Z,14.40
2017-11-21T12:02:43.196Z,14.27
2017-11-21T12:05:17.510Z,12.70
2017-11-21T12:07:52.006Z,12.88
2017-11-21T12:10:26.304Z,12.85
2017-11-21T12:13:00.789Z,13.95
2017-11-21T12:15:35.169Z,13.48
2017-11-21T12:18:09.544Z,13.73
2017-11-21T12:20:44.050Z,13.85
2017-11-21T12:23:18.570Z,13.45
2017-11-21T12:25:52.937Z,13.50
2017-11-21T12:28:28.153Z,13.20
2017-11-21T12:31:02.518Z,13.68
2017-11-21T12:33:36.865Z,15.10
2017-11-21T12:36:11.539Z,13.95
2017-11-21T12:38:45.854Z,14.13
2017-11-21T12:41:20.177Z,14.90
2017-11-21T12:43:54.472Z,15.40
2017-11-21T12:46:28.953Z,14.57
2017-11-21T12:49:03.442Z,15.40
2017-11-21T12:51:37.927Z,14.95
2017-11-21T12:54:12.352Z,15.05
2017-11-21T12:56:46.781Z,14.77
2017-11-21T12:59:21.247Z,16.90
2017-11-21T13:01:55.663Z,14.90
2017-11-21T13:04:30.099Z,13.70
2017-11-21T13:07:04.508Z,21.80
2017-11-21T13:09:38.926Z,17.10
2017-11-21T13:12:13.400Z,22.45
2017-11-21T13:14:47.775Z,18.92
2017-11-21T13:17:22.273Z,18.08
2017-11-21T13:19:56.777Z,15.18
2017-11-21T13:22:31.161Z,17.08
2017-11-21T13:25:05.532Z,13.68
2017-11-21T13:27:40.792Z,15.30
2017-11-21T13:30:15.237Z,14.63
2017-11-21T13:32:49.645Z,16.02
2017-11-21T13:35:24.109Z,15.80
2017-11-21T13:37:59.299Z,18.50
2017-11-21T13:40:33.838Z,18.73
2017-11-21T13:43:08.347Z,16.23
2017-11-21T13:45:42.802Z,15.40
2017-11-21T13:48:18.996Z,16.30
2017-11-21T13:50:53.293Z,15.15
2017-11-21T13:53:27.614Z,16.23
2017-11-21T13:56:01.913Z,16.05
2017-11-21T13:58:36.231Z,14.87
2017-11-21T14:01:11.466Z,16.58
2017-11-21T14:03:45.776Z,18.50
2017-11-21T14:06:20.926Z,16.45
2017-11-21T14:08:55.233Z,15.18
2017-11-21T14:11:29.600Z,17.50
2017-11-21T14:14:04.047Z,16.37
2017-11-21T14:16:38.484Z,16.23
2017-11-21T14:19:12.912Z,14.18
2017-11-21T14:21:49.162Z,17.08
2017-11-21T14:24:23.592Z,16.50
2017-11-21T14:26:57.945Z,14.68
2017-11-21T14:29:33.400Z,16.33
2017-11-21T14:32:08.021Z,15.18
2017-11-21T14:34:42.396Z,16.17
2017-11-21T14:37:16.827Z,16.20
2017-11-21T14:39:51.314Z,14.48
2017-11-21T14:42:25.897Z,16.20
2017-11-21T14:45:00.334Z,18.85
2017-11-21T14:47:34.745Z,15.75
2017-11-21T14:50:09.174Z,17.33
2017-11-21T14:52:43.700Z,16.73
2017-11-21T14:55:18.250Z,16.50
2017-11-21T14:57:52.669Z,13.90
2017-11-21T15:00:27.897Z,14.90
2017-11-21T15:03:02.361Z,15.65
2017-11-21T15:05:36.776Z,15.65
2017-11-21T15:08:11.220Z,15.90
2017-11-21T15:10:45.638Z,19.10
2017-11-21T15:13:19.964Z,16.98
2017-11-21T15:15:54.284Z,18.33
2017-11-21T15:18:28.635Z,17.83
2017-11-21T15:21:03.287Z,19.20
2017-11-21T15:23:37.804Z,22.13
2017-11-21T15:26:12.272Z,17.58
2017-11-21T15:28:46.700Z,19.98
2017-11-21T15:31:21.928Z,20.95
2017-11-21T15:33:57.075Z,22.27
2017-11-21T15:36:31.645Z,20.50
2017-11-21T15:39:06.160Z,19.23
2017-11-21T15:41:41.276Z,16.83
2017-11-21T15:44:16.519Z,18.77
2017-11-21T15:46:51.008Z,15.93
2017-11-21T15:49:25.349Z,17.85
2017-11-21T15:51:59.886Z,17.37
2017-11-21T15:54:34.385Z,16.80
2017-11-21T15:57:09.062Z,19.83
2017-11-21T15:59:43.549Z,17.30
2017-11-21T16:02:18.137Z,17.83
2017-11-21T16:04:52.564Z,21.00
2017-11-21T16:07:27.053Z,23.05
2017-11-21T16:10:01.509Z,21.30
2017-11-21T16:12:36.017Z,20.85
2017-11-21T16:15:11.973Z,17.55
2017-11-21T16:17:46.409Z,18.10
2017-11-21T16:20:20.964Z,19.02
2017-11-21T16:22:55.412Z,19.55
2017-11-21T16:25:30.571Z,18.30
2017-11-21T16:28:05.020Z,18.73
2017-11-21T16:30:39.411Z,17.75
2017-11-21T16:33:14.062Z,16.17
2017-11-21T16:35:48.668Z,16.55
2017-11-21T16:38:22.973Z,16.67
2017-11-21T16:40:57.590Z,18.17
2017-11-21T16:43:31.941Z,17.62
2017-11-21T16:46:06.286Z,19.25
2017-11-21T16:48:40.651Z,17.87
2017-11-21T16:51:15.153Z,17.95
2017-11-21T16:53:50.362Z,21.98
2017-11-21T16:56:24.866Z,17.62
2017-11-21T16:59:00.142Z,21.70
2017-11-21T17:01:34.642Z,16.35
2017-11-21T17:04:09.046Z,20.33
2017-11-21T17:06:43.378Z,18.35
2017-11-21T17:09:17.687Z,19.90
2017-11-21T17:11:52.162Z,17.90
2017-11-21T17:14:26.598Z,18.62
2017-11-21T17:17:01.175Z,16.62
2017-11-21T17:19:35.860Z,16.73
2017-11-21T17:22:10.192Z,16.05
2017-11-21T17:24:44.646Z,17.50
2017-11-21T17:27:18.989Z,16.73
2017-11-21T17:29:53.457Z,18.95
2017-11-21T17:32:27.909Z,18.73
2017-11-21T17:35:02.261Z,16.20
2017-11-21T17:37:36.665Z,14.85
2017-11-21T17:40:11.212Z,17.92
2017-11-21T17:42:45.657Z,17.45
2017-11-21T17:45:20.226Z,19.77
2017-11-21T17:47:55.464Z,17.87
2017-11-21T17:50:29.893Z,19.98
2017-11-21T17:53:04.374Z,17.65
2017-11-21T17:55:38.866Z,18.60
2017-11-21T17:58:13.282Z,17.73
2017-11-21T18:00:47.732Z,19.60
2017-11-21T18:03:22.265Z,24.12
2017-11-21T18:05:56.649Z,18.23
2017-11-21T18:08:32.041Z,17.80
2017-11-21T18:11:06.456Z,15.50
2017-11-21T18:13:40.910Z,18.70
2017-11-21T18:16:15.332Z,19.98
2017-11-21T18:18:50.443Z,17.15
2017-11-21T18:21:24.894Z,17.55
2017-11-21T18:23:59.330Z,19.70
2017-11-21T18:26:33.808Z,16.50
2017-11-21T18:29:08.444Z,19.10
2017-11-21T18:31:42.768Z,16.30
2017-11-21T18:34:17.090Z,17.90
2017-11-21T18:36:51.400Z,16.58
2017-11-21T18:39:25.883Z,15.80
2017-11-21T18:42:00.220Z,16.37
2017-11-21T18:44:34.668Z,17.33
2017-11-21T18:47:09.112Z,15.70
2017-11-21T18:49:43.507Z,17.73
2017-11-21T18:52:18.018Z,18.92
2017-11-21T18:54:52.470Z,17.08
2017-11-21T18:57:26.870Z,18.25
2017-11-21T19:00:01.184Z,16.80
2017-11-21T19:02:35.728Z,18.92
2017-11-21T19:05:10.056Z,17.70
2017-11-21T19:07:44.497Z,15.75
2017-11-21T19:10:19.072Z,16.83
2017-11-21T19:12:53.502Z,18.48
2017-11-21T19:15:27.999Z,17.37
2017-11-21T19:18:02.389Z,17.90
2017-11-21T19:20:36.845Z,16.85
2017-11-21T19:23:11.344Z,19.50
2017-11-21T19:25:45.794Z,17.08
2017-11-21T19:28:21.226Z,18.67
2017-11-21T19:30:55.701Z,18.10
2017-11-21T19:33:30.284Z,17.27
2017-11-21T19:36:04.661Z,17.25
2017-11-21T19:38:39.118Z,17.05
2017-11-21T19:41:13.453Z,16.33
2017-11-21T19:43:47.923Z,17.12
2017-11-21T19:46:22.266Z,17.45
2017-11-21T19:48:56.764Z,14.85
2017-11-21T19:51:31.155Z,16.83
2017-11-21T19:54:05.533Z,13.30
2017-11-21T19:56:40.052Z,14.40
2017-11-21T19:59:14.607Z,16.42
2017-11-21T20:01:49.103Z,13.68
2017-11-21T20:04:23.842Z,13.93
2017-11-21T20:06:58.142Z,13.02
2017-11-21T20:09:32.672Z,12.37
2017-11-21T20:12:07.112Z,15.23
2017-11-21T20:14:41.761Z,14.57
2017-11-21T20:17:16.178Z,14.50
2017-11-21T20:19:51.978Z,14.70
2017-11-21T20:22:26.459Z,15.55
2017-11-21T20:25:00.969Z,13.60
2017-11-21T20:27:36.255Z,14.07
2017-11-21T20:30:10.764Z,13.73
2017-11-21T20:32:45.102Z,12.82
2017-11-21T20:35:19.543Z,12.55
2017-11-21T20:37:54.120Z,12.05
2017-11-21T20:40:28.565Z,13.07
2017-11-21T20:43:03.179Z,11.88
2017-11-21T20:45:37.544Z,12.65
2017-11-21T20:48:12.498Z,11.10
2017-11-21T20:50:47.299Z,9.82
2017-11-21T20:53:21.646Z,9.93
2017-11-21T20:55:56.114Z,10.60
2017-11-21T20:58:30.545Z,10.07
2017-11-21T21:01:05.134Z,9.30
2017-11-21T21:03:39.488Z,9.07
2017-11-21T21:06:14.729Z,9.60
2017-11-21T21:08:49.204Z,9.38
2017-11-21T21:11:24.653Z,8.80
2017-11-21T21:13:59.165Z,7.93
2017-11-21T21:16:33.706Z,9.45
2017-11-21T21:19:08.145Z,9.30
2017-11-21T21:21:43.356Z,8.95
2017-11-21T21:24:17.737Z,9.75
2017-11-21T21:26:52.264Z,9.38
2017-11-21T21:29:26.689Z,9.27
2017-11-21T21:32:01.022Z,8.38
2017-11-21T21:34:35.488Z,8.98
2017-11-21T21:37:09.949Z,7.68
2017-11-21T21:39:44.322Z,7.85
2017-11-21T21:42:19.406Z,7.00
2017-11-21T21:44:54.630Z,8.73
2017-11-21T21:47:29.143Z,9.82
2017-11-21T21:50:03.763Z,6.75
2017-11-21T21:52:38.353Z,12.13
2017-11-21T21:55:13.562Z,8.50
2017-11-21T21:57:48.836Z,7.68
2017-11-21T22:00:23.401Z,8.23
2017-11-21T22:02:57.883Z,8.85
2017-11-21T22:05:32.660Z,7.55
2017-11-21T22:08:07.317Z,7.75
2017-11-21T22:10:41.805Z,7.68
2017-11-21T22:13:16.250Z,7.60
2017-11-21T22:15:50.557Z,7.57
2017-11-21T22:18:24.957Z,7.72
2017-11-21T22:20:59.458Z,7.10
2017-11-21T22:23:33.837Z,5.72
2017-11-21T22:26:08.335Z,8.30
2017-11-21T22:28:42.831Z,5.82
2017-11-21T22:31:18.256Z,7.45
2017-11-21T22:33:53.544Z,5.68
2017-11-21T22:36:28.397Z,7.40
2017-11-21T22:39:02.844Z,7.85
2017-11-21T22:41:38.175Z,6.75
2017-11-21T22:44:12.496Z,5.93
2017-11-21T22:46:46.894Z,7.07
2017-11-21T22:49:21.384Z,5.55
2017-11-21T22:51:55.910Z,6.28
2017-11-21T22:54:30.413Z,5.15
2017-11-21T22:57:05.582Z,5.80
2017-11-21T22:59:40.045Z,5.47
2017-11-21T23:02:14.538Z,5.03
2017-11-21T23:04:49.003Z,4.30
2017-11-21T23:07:23.557Z,4.30
2017-11-21T23:09:58.066Z,4.40
2017-11-21T23:12:32.518Z,4.70
2017-11-21T23:15:06.994Z,4.65
2017-11-21T23:17:42.598Z,3.53
2017-11-21T23:20:17.137Z,3.90
2017-11-21T23:22:51.650Z,4.05
2017-11-21T23:25:26.285Z,2.87
2017-11-21T23:28:00.570Z,4.18
2017-11-21T23:30:35.026Z,3.25
2017-11-21T23:33:10.293Z,3.20
2017-11-21T23:35:44.787Z,2.47
2017-11-21T23:38:20.316Z,2.80
2017-11-21T23:40:54.809Z,2.60
2017-11-21T23:43:29.303Z,2.55
2017-11-21T23:46:03.780Z,2.70
2017-11-21T23:48:38.259Z,3.00
2017-11-21T23:51:12.673Z,2.45
2017-11-21T23:53:47.018Z,2.30
2017-11-21T23:56:21.593Z,2.10
2017-11-21T23:58:55.966Z,2.30
